Terminal Aerodrome Forecast
Issued by NWS

Current Version | Previous Version | Graphics & Text | Print | Product List | Glossary On
Versions: 1 2 3 4 5 6 7 8 9 10 11 12 13 14 15 16 17 18 19 20 21 22
203
FTUS41 KPBZ 280901 AAA
TAFMGW
TAF AMD
KMGW 280901Z 2809/2906 VRB03KT 5SM BR VCSH BKN050
     FM281400 17005KT P6SM BKN035
     FM281900 18005KT P6SM VCTS BKN035CB
     FM290000 20008KT 5SM -SHRA VCTS OVC035CB
     FM290300 20008KT P6SM -SHRA OVC035=

USA.gov is the U.S. government's official web portal to all federal, state and local government web resources and services.